sensor_id;sensor_type;location;lat;lon;timestamp;P1;durP1;ratioP1;P2;durP2;ratioP2
52692;SDS011;68218;51.012;-1.648;2023-04-25T00:00:56;10.80;;;10.00;;
52692;SDS011;68218;51.012;-1.648;2023-04-25T00:03:22;11.40;;;10.50;;
52692;SDS011;68218;51.012;-1.648;2023-04-25T00:05:50;10.95;;;10.15;;
52692;SDS011;68218;51.012;-1.648;2023-04-25T00:08:16;10.38;;;9.57;;
52692;SDS011;68218;51.012;-1.648;2023-04-25T00:10:42;10.13;;;9.32;;
52692;SDS011;68218;51.012;-1.648;2023-04-25T00:13:08;10.65;;;9.85;;
52692;SDS011;68218;51.012;-1.648;2023-04-25T00:15:33;10.68;;;9.88;;
52692;SDS011;68218;51.012;-1.648;2023-04-25T00:18:00;10.48;;;9.68;;
52692;SDS011;68218;51.012;-1.648;2023-04-25T00:20:26;10.65;;;9.85;;
52692;SDS011;68218;51.012;-1.648;2023-04-25T00:22:51;9.88;;;9.18;;
52692;SDS011;68218;51.012;-1.648;2023-04-25T00:25:20;10.27;;;9.57;;
52692;SDS011;68218;51.012;-1.648;2023-04-25T00:27:45;9.98;;;9.27;;
52692;SDS011;68218;51.012;-1.648;2023-04-25T00:30:11;11.10;;;10.30;;
52692;SDS011;68218;51.012;-1.648;2023-04-25T00:35:02;9.50;;;8.80;;
52692;SDS011;68218;51.012;-1.648;2023-04-25T00:37:28;14.73;;;10.18;;
52692;SDS011;68218;51.012;-1.648;2023-04-25T00:39:53;10.18;;;9.48;;
52692;SDS011;68218;51.012;-1.648;2023-04-25T00:42:20;9.93;;;9.23;;
52692;SDS011;68218;51.012;-1.648;2023-04-25T00:44:46;9.80;;;9.10;;
52692;SDS011;68218;51.012;-1.648;2023-04-25T00:47:12;10.50;;;9.77;;
52692;SDS011;68218;51.012;-1.648;2023-04-25T00:49:38;12.23;;;11.32;;
52692;SDS011;68218;51.012;-1.648;2023-04-25T00:52:04;9.68;;;8.98;;
52692;SDS011;68218;51.012;-1.648;2023-04-25T00:54:29;9.75;;;9.05;;
52692;SDS011;68218;51.012;-1.648;2023-04-25T00:56:55;10.30;;;9.60;;
52692;SDS011;68218;51.012;-1.648;2023-04-25T00:59:21;10.02;;;9.32;;
52692;SDS011;68218;51.012;-1.648;2023-04-25T01:01:47;10.15;;;9.45;;
52692;SDS011;68218;51.012;-1.648;2023-04-25T01:04:13;9.82;;;9.13;;
52692;SDS011;68218;51.012;-1.648;2023-04-25T01:06:38;9.88;;;9.18;;
52692;SDS011;68218;51.012;-1.648;2023-04-25T01:09:05;10.13;;;9.43;;
52692;SDS011;68218;51.012;-1.648;2023-04-25T01:11:31;9.43;;;8.73;;
52692;SDS011;68218;51.012;-1.648;2023-04-25T01:13:56;10.52;;;9.82;;
52692;SDS011;68218;51.012;-1.648;2023-04-25T01:16:22;10.48;;;9.77;;
52692;SDS011;68218;51.012;-1.648;2023-04-25T01:18:51;9.98;;;9.27;;
52692;SDS011;68218;51.012;-1.648;2023-04-25T01:21:17;11.73;;;10.93;;
52692;SDS011;68218;51.012;-1.648;2023-04-25T01:23:43;10.23;;;9.52;;
52692;SDS011;68218;51.012;-1.648;2023-04-25T01:26:09;10.45;;;9.65;;
52692;SDS011;68218;51.012;-1.648;2023-04-25T01:28:35;10.35;;;9.63;;
52692;SDS011;68218;51.012;-1.648;2023-04-25T01:31:02;9.70;;;9.00;;
52692;SDS011;68218;51.012;-1.648;2023-04-25T01:33:28;10.40;;;9.68;;
52692;SDS011;68218;51.012;-1.648;2023-04-25T01:35:54;10.55;;;9.80;;
52692;SDS011;68218;51.012;-1.648;2023-04-25T01:38:20;10.93;;;10.13;;
52692;SDS011;68218;51.012;-1.648;2023-04-25T01:40:45;10.02;;;9.32;;
52692;SDS011;68218;51.012;-1.648;2023-04-25T01:43:12;12.68;;;9.82;;
52692;SDS011;68218;51.012;-1.648;2023-04-25T01:45:39;9.73;;;9.02;;
52692;SDS011;68218;51.012;-1.648;2023-04-25T01:48:06;10.68;;;9.88;;
52692;SDS011;68218;51.012;-1.648;2023-04-25T01:50:36;10.65;;;9.85;;
52692;SDS011;68218;51.012;-1.648;2023-04-25T01:53:02;10.68;;;9.88;;
52692;SDS011;68218;51.012;-1.648;2023-04-25T01:55:29;9.82;;;9.13;;
52692;SDS011;68218;51.012;-1.648;2023-04-25T01:57:54;9.77;;;9.07;;
52692;SDS011;68218;51.012;-1.648;2023-04-25T02:00:20;10.65;;;9.85;;
52692;SDS011;68218;51.012;-1.648;2023-04-25T02:02:45;10.30;;;9.50;;
52692;SDS011;68218;51.012;-1.648;2023-04-25T02:05:11;11.30;;;10.40;;
52692;SDS011;68218;51.012;-1.648;2023-04-25T02:07:36;10.93;;;10.13;;
52692;SDS011;68218;51.012;-1.648;2023-04-25T02:10:03;10.10;;;9.38;;
52692;SDS011;68218;51.012;-1.648;2023-04-25T02:12:28;9.82;;;9.13;;
52692;SDS011;68218;51.012;-1.648;2023-04-25T02:14:54;10.15;;;9.43;;
52692;SDS011;68218;51.012;-1.648;2023-04-25T02:17:19;10.50;;;9.70;;
52692;SDS011;68218;51.012;-1.648;2023-04-25T02:19:46;9.95;;;9.18;;
52692;SDS011;68218;51.012;-1.648;2023-04-25T02:22:11;10.80;;;10.00;;
52692;SDS011;68218;51.012;-1.648;2023-04-25T02:24:38;9.98;;;9.25;;
52692;SDS011;68218;51.012;-1.648;2023-04-25T02:27:03;9.98;;;9.27;;
52692;SDS011;68218;51.012;-1.648;2023-04-25T02:29:29;10.65;;;9.90;;
52692;SDS011;68218;51.012;-1.648;2023-04-25T02:31:55;9.95;;;9.23;;
52692;SDS011;68218;51.012;-1.648;2023-04-25T02:34:20;10.48;;;9.75;;
52692;SDS011;68218;51.012;-1.648;2023-04-25T02:36:47;9.85;;;9.15;;
52692;SDS011;68218;51.012;-1.648;2023-04-25T02:39:13;10.00;;;9.30;;
52692;SDS011;68218;51.012;-1.648;2023-04-25T02:41:39;10.07;;;9.38;;
52692;SDS011;68218;51.012;-1.648;2023-04-25T02:44:04;10.48;;;9.75;;
52692;SDS011;68218;51.012;-1.648;2023-04-25T02:46:30;10.80;;;10.00;;
52692;SDS011;68218;51.012;-1.648;2023-04-25T02:48:55;10.35;;;9.65;;
52692;SDS011;68218;51.012;-1.648;2023-04-25T02:51:20;9.93;;;9.23;;
52692;SDS011;68218;51.012;-1.648;2023-04-25T02:53:46;10.85;;;10.05;;
52692;SDS011;68218;51.012;-1.648;2023-04-25T02:56:11;10.23;;;9.52;;
52692;SDS011;68218;51.012;-1.648;2023-04-25T02:58:37;10.73;;;9.93;;
52692;SDS011;68218;51.012;-1.648;2023-04-25T03:01:02;10.38;;;9.57;;
52692;SDS011;68218;51.012;-1.648;2023-04-25T03:03:27;10.80;;;10.02;;
52692;SDS011;68218;51.012;-1.648;2023-04-25T03:05:53;9.55;;;8.85;;
52692;SDS011;68218;51.012;-1.648;2023-04-25T03:08:18;10.30;;;9.50;;
52692;SDS011;68218;51.012;-1.648;2023-04-25T03:10:44;9.73;;;9.02;;
52692;SDS011;68218;51.012;-1.648;2023-04-25T03:13:10;10.35;;;9.55;;
52692;SDS011;68218;51.012;-1.648;2023-04-25T03:15:36;11.80;;;10.90;;
52692;SDS011;68218;51.012;-1.648;2023-04-25T03:18:02;10.38;;;9.57;;
52692;SDS011;68218;51.012;-1.648;2023-04-25T03:20:28;11.27;;;10.48;;
52692;SDS011;68218;51.012;-1.648;2023-04-25T03:22:53;9.55;;;8.85;;
52692;SDS011;68218;51.012;-1.648;2023-04-25T03:25:19;11.07;;;10.25;;
52692;SDS011;68218;51.012;-1.648;2023-04-25T03:27:44;11.13;;;10.30;;
52692;SDS011;68218;51.012;-1.648;2023-04-25T03:30:10;10.02;;;9.23;;
52692;SDS011;68218;51.012;-1.648;2023-04-25T03:32:36;9.88;;;9.18;;
52692;SDS011;68218;51.012;-1.648;2023-04-25T03:35:01;9.95;;;9.20;;
52692;SDS011;68218;51.012;-1.648;2023-04-25T03:37:26;9.70;;;9.00;;
52692;SDS011;68218;51.012;-1.648;2023-04-25T03:39:52;10.63;;;9.82;;
52692;SDS011;68218;51.012;-1.648;2023-04-25T03:42:17;9.85;;;9.15;;
52692;SDS011;68218;51.012;-1.648;2023-04-25T03:44:43;10.07;;;9.38;;
52692;SDS011;68218;51.012;-1.648;2023-04-25T03:47:08;9.88;;;9.18;;
52692;SDS011;68218;51.012;-1.648;2023-04-25T03:49:34;9.45;;;8.75;;
52692;SDS011;68218;51.012;-1.648;2023-04-25T03:52:00;10.07;;;9.38;;
52692;SDS011;68218;51.012;-1.648;2023-04-25T03:54:26;9.65;;;8.95;;
52692;SDS011;68218;51.012;-1.648;2023-04-25T03:56:51;9.02;;;8.32;;
52692;SDS011;68218;51.012;-1.648;2023-04-25T03:59:17;9.15;;;8.45;;
52692;SDS011;68218;51.012;-1.648;2023-04-25T04:01:42;9.68;;;8.98;;
52692;SDS011;68218;51.012;-1.648;2023-04-25T04:04:08;9.50;;;8.80;;
52692;SDS011;68218;51.012;-1.648;2023-04-25T04:06:33;8.73;;;8.10;;
52692;SDS011;68218;51.012;-1.648;2023-04-25T04:08:59;9.35;;;8.65;;
52692;SDS011;68218;51.012;-1.648;2023-04-25T04:11:24;8.93;;;8.23;;
52692;SDS011;68218;51.012;-1.648;2023-04-25T04:13:50;9.07;;;8.38;;
52692;SDS011;68218;51.012;-1.648;2023-04-25T04:16:15;8.43;;;7.82;;
52692;SDS011;68218;51.012;-1.648;2023-04-25T04:18:41;8.75;;;8.13;;
52692;SDS011;68218;51.012;-1.648;2023-04-25T04:21:06;8.85;;;8.23;;
52692;SDS011;68218;51.012;-1.648;2023-04-25T04:23:32;8.60;;;8.00;;
52692;SDS011;68218;51.012;-1.648;2023-04-25T04:28:23;10.00;;;9.30;;
52692;SDS011;68218;51.012;-1.648;2023-04-25T04:30:50;9.25;;;8.55;;
52692;SDS011;68218;51.012;-1.648;2023-04-25T04:33:17;9.63;;;8.93;;
52692;SDS011;68218;51.012;-1.648;2023-04-25T04:35:46;10.05;;;9.35;;
52692;SDS011;68218;51.012;-1.648;2023-04-25T04:38:12;10.48;;;9.77;;
52692;SDS011;68218;51.012;-1.648;2023-04-25T04:40:40;9.10;;;8.50;;
52692;SDS011;68218;51.012;-1.648;2023-04-25T04:43:08;9.70;;;9.00;;
52692;SDS011;68218;51.012;-1.648;2023-04-25T04:45:35;9.82;;;9.13;;
52692;SDS011;68218;51.012;-1.648;2023-04-25T04:48:03;10.00;;;9.30;;
52692;SDS011;68218;51.012;-1.648;2023-04-25T04:50:30;9.25;;;8.65;;
52692;SDS011;68218;51.012;-1.648;2023-04-25T04:52:57;9.48;;;8.85;;
52692;SDS011;68218;51.012;-1.648;2023-04-25T04:55:23;10.00;;;9.30;;
52692;SDS011;68218;51.012;-1.648;2023-04-25T04:57:48;8.93;;;8.32;;
52692;SDS011;68218;51.012;-1.648;2023-04-25T05:00:14;9.43;;;8.82;;
52692;SDS011;68218;51.012;-1.648;2023-04-25T05:02:40;9.30;;;8.70;;
52692;SDS011;68218;51.012;-1.648;2023-04-25T05:05:06;9.38;;;8.77;;
52692;SDS011;68218;51.012;-1.648;2023-04-25T05:09:57;8.97;;;8.37;;
52692;SDS011;68218;51.012;-1.648;2023-04-25T05:12:23;9.40;;;8.80;;
52692;SDS011;68218;51.012;-1.648;2023-04-25T05:14:48;9.45;;;8.85;;
52692;SDS011;68218;51.012;-1.648;2023-04-25T05:17:13;8.88;;;8.27;;
52692;SDS011;68218;51.012;-1.648;2023-04-25T05:19:39;9.35;;;8.75;;
52692;SDS011;68218;51.012;-1.648;2023-04-25T05:22:04;8.98;;;8.38;;
52692;SDS011;68218;51.012;-1.648;2023-04-25T05:24:30;9.95;;;9.32;;
52692;SDS011;68218;51.012;-1.648;2023-04-25T05:26:55;9.05;;;8.45;;
52692;SDS011;68218;51.012;-1.648;2023-04-25T05:29:21;9.75;;;9.13;;
52692;SDS011;68218;51.012;-1.648;2023-04-25T05:31:46;10.35;;;9.65;;
52692;SDS011;68218;51.012;-1.648;2023-04-25T05:36:38;9.75;;;9.10;;
52692;SDS011;68218;51.012;-1.648;2023-04-25T05:39:03;9.57;;;8.95;;
52692;SDS011;68218;51.012;-1.648;2023-04-25T05:41:29;9.50;;;8.90;;
52692;SDS011;68218;51.012;-1.648;2023-04-25T05:43:55;10.23;;;9.52;;
52692;SDS011;68218;51.012;-1.648;2023-04-25T05:46:20;9.57;;;8.98;;
52692;SDS011;68218;51.012;-1.648;2023-04-25T05:48:45;9.27;;;8.68;;
52692;SDS011;68218;51.012;-1.648;2023-04-25T05:51:11;9.82;;;9.13;;
52692;SDS011;68218;51.012;-1.648;2023-04-25T05:53:36;9.70;;;9.02;;
52692;SDS011;68218;51.012;-1.648;2023-04-25T05:56:02;9.80;;;9.10;;
52692;SDS011;68218;51.012;-1.648;2023-04-25T05:58:27;9.80;;;9.10;;
52692;SDS011;68218;51.012;-1.648;2023-04-25T06:00:53;9.55;;;8.88;;
52692;SDS011;68218;51.012;-1.648;2023-04-25T06:03:19;9.18;;;8.55;;
52692;SDS011;68218;51.012;-1.648;2023-04-25T06:05:45;9.50;;;8.80;;
52692;SDS011;68218;51.012;-1.648;2023-04-25T06:08:10;9.18;;;8.55;;
52692;SDS011;68218;51.012;-1.648;2023-04-25T06:10:36;9.25;;;8.65;;
52692;SDS011;68218;51.012;-1.648;2023-04-25T06:13:02;9.50;;;8.88;;
52692;SDS011;68218;51.012;-1.648;2023-04-25T06:15:29;9.43;;;8.77;;
52692;SDS011;68218;51.012;-1.648;2023-04-25T06:17:55;9.55;;;8.85;;
52692;SDS011;68218;51.012;-1.648;2023-04-25T06:20:20;9.25;;;8.63;;
52692;SDS011;68218;51.012;-1.648;2023-04-25T06:22:48;9.85;;;9.15;;
52692;SDS011;68218;51.012;-1.648;2023-04-25T06:25:14;9.38;;;8.73;;
52692;SDS011;68218;51.012;-1.648;2023-04-25T06:27:40;9.50;;;8.88;;
52692;SDS011;68218;51.012;-1.648;2023-04-25T06:30:05;9.38;;;8.75;;
52692;SDS011;68218;51.012;-1.648;2023-04-25T06:34:57;9.45;;;8.75;;
52692;SDS011;68218;51.012;-1.648;2023-04-25T06:37:23;9.13;;;8.52;;
52692;SDS011;68218;51.012;-1.648;2023-04-25T06:39:48;9.27;;;8.65;;
52692;SDS011;68218;51.012;-1.648;2023-04-25T06:42:13;9.68;;;8.98;;
52692;SDS011;68218;51.012;-1.648;2023-04-25T06:44:39;9.20;;;8.60;;
52692;SDS011;68218;51.012;-1.648;2023-04-25T06:47:04;9.25;;;8.63;;
52692;SDS011;68218;51.012;-1.648;2023-04-25T06:49:30;9.88;;;9.18;;
52692;SDS011;68218;51.012;-1.648;2023-04-25T06:51:55;9.68;;;8.98;;
52692;SDS011;68218;51.012;-1.648;2023-04-25T06:54:20;10.27;;;9.57;;
52692;SDS011;68218;51.012;-1.648;2023-04-25T06:56:46;14.10;;;13.10;;
52692;SDS011;68218;51.012;-1.648;2023-04-25T06:59:11;13.82;;;11.32;;
52692;SDS011;68218;51.012;-1.648;2023-04-25T07:01:37;9.93;;;9.23;;
52692;SDS011;68218;51.012;-1.648;2023-04-25T07:04:02;10.40;;;9.68;;
52692;SDS011;68218;51.012;-1.648;2023-04-25T07:06:28;11.10;;;10.30;;
52692;SDS011;68218;51.012;-1.648;2023-04-25T07:08:53;10.60;;;9.85;;
52692;SDS011;68218;51.012;-1.648;2023-04-25T07:11:19;9.95;;;9.23;;
52692;SDS011;68218;51.012;-1.648;2023-04-25T07:13:45;17.90;;;9.32;;
52692;SDS011;68218;51.012;-1.648;2023-04-25T07:16:10;11.18;;;10.38;;
52692;SDS011;68218;51.012;-1.648;2023-04-25T07:18:36;12.65;;;11.75;;
52692;SDS011;68218;51.012;-1.648;2023-04-25T07:21:01;13.23;;;12.27;;
52692;SDS011;68218;51.012;-1.648;2023-04-25T07:23:27;13.98;;;12.98;;
52692;SDS011;68218;51.012;-1.648;2023-04-25T07:25:52;17.10;;;15.90;;
52692;SDS011;68218;51.012;-1.648;2023-04-25T07:28:18;14.68;;;13.68;;
52692;SDS011;68218;51.012;-1.648;2023-04-25T07:30:43;16.63;;;15.43;;
52692;SDS011;68218;51.012;-1.648;2023-04-25T07:33:09;16.00;;;14.85;;
52692;SDS011;68218;51.012;-1.648;2023-04-25T07:37:59;11.45;;;10.65;;
52692;SDS011;68218;51.012;-1.648;2023-04-25T07:40:25;11.07;;;10.27;;
52692;SDS011;68218;51.012;-1.648;2023-04-25T07:42:50;10.20;;;9.48;;
52692;SDS011;68218;51.012;-1.648;2023-04-25T07:45:16;10.65;;;9.85;;
52692;SDS011;68218;51.012;-1.648;2023-04-25T07:47:41;11.93;;;11.07;;
52692;SDS011;68218;51.012;-1.648;2023-04-25T07:50:07;10.65;;;9.85;;
52692;SDS011;68218;51.012;-1.648;2023-04-25T07:52:33;10.60;;;9.80;;
52692;SDS011;68218;51.012;-1.648;2023-04-25T07:54:58;10.55;;;9.75;;
52692;SDS011;68218;51.012;-1.648;2023-04-25T07:57:24;10.68;;;9.88;;
52692;SDS011;68218;51.012;-1.648;2023-04-25T07:59:49;10.95;;;10.15;;
52692;SDS011;68218;51.012;-1.648;2023-04-25T08:02:15;10.75;;;9.95;;
52692;SDS011;68218;51.012;-1.648;2023-04-25T08:07:07;11.05;;;10.25;;
52692;SDS011;68218;51.012;-1.648;2023-04-25T08:09:32;10.82;;;10.02;;
52692;SDS011;68218;51.012;-1.648;2023-04-25T08:12:01;10.95;;;10.15;;
52692;SDS011;68218;51.012;-1.648;2023-04-25T08:14:28;11.00;;;10.20;;
52692;SDS011;68218;51.012;-1.648;2023-04-25T08:16:56;10.68;;;9.88;;
52692;SDS011;68218;51.012;-1.648;2023-04-25T08:21:47;11.57;;;10.77;;
52692;SDS011;68218;51.012;-1.648;2023-04-25T08:24:12;12.02;;;11.13;;
52692;SDS011;68218;51.012;-1.648;2023-04-25T08:29:04;10.75;;;9.95;;
52692;SDS011;68218;51.012;-1.648;2023-04-25T08:31:30;10.80;;;10.00;;
52692;SDS011;68218;51.012;-1.648;2023-04-25T08:33:55;11.65;;;10.77;;
52692;SDS011;68218;51.012;-1.648;2023-04-25T08:36:21;10.70;;;9.90;;
52692;SDS011;68218;51.012;-1.648;2023-04-25T08:38:47;12.52;;;11.52;;
52692;SDS011;68218;51.012;-1.648;2023-04-25T08:43:38;10.88;;;10.07;;
52692;SDS011;68218;51.012;-1.648;2023-04-25T08:46:08;11.50;;;10.60;;
52692;SDS011;68218;51.012;-1.648;2023-04-25T08:48:34;11.13;;;10.32;;
52692;SDS011;68218;51.012;-1.648;2023-04-25T08:53:28;11.23;;;10.40;;
52692;SDS011;68218;51.012;-1.648;2023-04-25T08:55:55;11.25;;;10.45;;
52692;SDS011;68218;51.012;-1.648;2023-04-25T08:58:23;12.57;;;11.68;;
52692;SDS011;68218;51.012;-1.648;2023-04-25T09:03:15;10.90;;;10.10;;
52692;SDS011;68218;51.012;-1.648;2023-04-25T09:05:41;11.02;;;10.20;;
52692;SDS011;68218;51.012;-1.648;2023-04-25T09:10:32;11.63;;;10.73;;
52692;SDS011;68218;51.012;-1.648;2023-04-25T09:15:49;11.45;;;10.63;;
52692;SDS011;68218;51.012;-1.648;2023-04-25T09:20:56;11.45;;;10.60;;
52692;SDS011;68218;51.012;-1.648;2023-04-25T09:23:29;11.43;;;10.57;;
52692;SDS011;68218;51.012;-1.648;2023-04-25T09:28:24;11.60;;;10.70;;
52692;SDS011;68218;51.012;-1.648;2023-04-25T09:30:54;11.23;;;10.43;;
52692;SDS011;68218;51.012;-1.648;2023-04-25T09:33:26;12.10;;;11.20;;
52692;SDS011;68218;51.012;-1.648;2023-04-25T09:35:53;11.05;;;10.25;;
52692;SDS011;68218;51.012;-1.648;2023-04-25T09:38:21;11.23;;;10.40;;
52692;SDS011;68218;51.012;-1.648;2023-04-25T09:40:47;11.25;;;10.45;;
52692;SDS011;68218;51.012;-1.648;2023-04-25T09:43:21;11.43;;;10.60;;
52692;SDS011;68218;51.012;-1.648;2023-04-25T09:45:48;10.75;;;9.95;;
52692;SDS011;68218;51.012;-1.648;2023-04-25T09:48:22;11.02;;;10.23;;
52692;SDS011;68218;51.012;-1.648;2023-04-25T09:51:09;12.40;;;11.52;;
52692;SDS011;68218;51.012;-1.648;2023-04-25T09:53:45;11.20;;;10.40;;
52692;SDS011;68218;51.012;-1.648;2023-04-25T09:56:15;11.10;;;10.30;;
52692;SDS011;68218;51.012;-1.648;2023-04-25T09:58:41;11.48;;;10.65;;
52692;SDS011;68218;51.012;-1.648;2023-04-25T10:01:08;10.80;;;10.00;;
52692;SDS011;68218;51.012;-1.648;2023-04-25T10:03:35;10.98;;;10.18;;
52692;SDS011;68218;51.012;-1.648;2023-04-25T10:06:08;11.10;;;10.23;;
52692;SDS011;68218;51.012;-1.648;2023-04-25T10:08:37;10.95;;;10.15;;
52692;SDS011;68218;51.012;-1.648;2023-04-25T10:11:07;11.00;;;10.20;;
52692;SDS011;68218;51.012;-1.648;2023-04-25T10:13:34;11.77;;;10.88;;
52692;SDS011;68218;51.012;-1.648;2023-04-25T10:16:01;10.95;;;10.13;;
52692;SDS011;68218;51.012;-1.648;2023-04-25T10:18:28;11.23;;;10.43;;
52692;SDS011;68218;51.012;-1.648;2023-04-25T10:20:59;11.23;;;10.40;;
52692;SDS011;68218;51.012;-1.648;2023-04-25T10:23:26;11.13;;;10.32;;
52692;SDS011;68218;51.012;-1.648;2023-04-25T10:25:54;12.35;;;11.35;;
52692;SDS011;68218;51.012;-1.648;2023-04-25T10:28:20;11.85;;;10.95;;
52692;SDS011;68218;51.012;-1.648;2023-04-25T10:31:02;11.30;;;10.48;;
52692;SDS011;68218;51.012;-1.648;2023-04-25T10:33:29;11.90;;;11.00;;
52692;SDS011;68218;51.012;-1.648;2023-04-25T10:35:58;11.75;;;10.85;;
52692;SDS011;68218;51.012;-1.648;2023-04-25T10:38:33;12.40;;;11.40;;
52692;SDS011;68218;51.012;-1.648;2023-04-25T10:41:08;12.05;;;11.15;;
52692;SDS011;68218;51.012;-1.648;2023-04-25T10:48:43;21.02;;;19.63;;
52692;SDS011;68218;51.012;-1.648;2023-04-25T10:51:16;16.92;;;15.73;;
52692;SDS011;68218;51.012;-1.648;2023-04-25T10:53:47;14.48;;;13.48;;
52692;SDS011;68218;51.012;-1.648;2023-04-25T10:56:32;17.42;;;16.23;;
52692;SDS011;68218;51.012;-1.648;2023-04-25T10:59:04;21.33;;;19.83;;
52692;SDS011;68218;51.012;-1.648;2023-04-25T11:01:35;20.63;;;19.23;;
52692;SDS011;68218;51.012;-1.648;2023-04-25T11:04:01;11.43;;;10.63;;
52692;SDS011;68218;51.012;-1.648;2023-04-25T11:09:40;11.50;;;10.68;;
52692;SDS011;68218;51.012;-1.648;2023-04-25T11:12:07;20.52;;;19.13;;
52692;SDS011;68218;51.012;-1.648;2023-04-25T11:14:34;11.93;;;11.02;;
52692;SDS011;68218;51.012;-1.648;2023-04-25T11:17:00;11.90;;;11.00;;
52692;SDS011;68218;51.012;-1.648;2023-04-25T11:19:27;11.77;;;10.95;;
52692;SDS011;68218;51.012;-1.648;2023-04-25T11:21:57;14.50;;;13.48;;
52692;SDS011;68218;51.012;-1.648;2023-04-25T11:24:30;12.02;;;11.13;;
52692;SDS011;68218;51.012;-1.648;2023-04-25T11:26:57;16.45;;;15.32;;
52692;SDS011;68218;51.012;-1.648;2023-04-25T11:29:28;21.88;;;20.38;;
52692;SDS011;68218;51.012;-1.648;2023-04-25T11:31:55;16.75;;;15.55;;
52692;SDS011;68218;51.012;-1.648;2023-04-25T11:34:23;18.60;;;17.38;;
52692;SDS011;68218;51.012;-1.648;2023-04-25T11:36:50;16.20;;;15.10;;
52692;SDS011;68218;51.012;-1.648;2023-04-25T11:39:17;16.38;;;15.27;;
52692;SDS011;68218;51.012;-1.648;2023-04-25T11:41:43;16.70;;;15.55;;
52692;SDS011;68218;51.012;-1.648;2023-04-25T11:44:08;16.73;;;15.57;;
52692;SDS011;68218;51.012;-1.648;2023-04-25T11:46:34;15.50;;;14.40;;
52692;SDS011;68218;51.012;-1.648;2023-04-25T11:49:00;17.80;;;16.60;;
52692;SDS011;68218;51.012;-1.648;2023-04-25T11:51:25;18.23;;;17.00;;
52692;SDS011;68218;51.012;-1.648;2023-04-25T11:53:51;15.85;;;14.75;;
52692;SDS011;68218;51.012;-1.648;2023-04-25T11:56:16;16.55;;;15.43;;
52692;SDS011;68218;51.012;-1.648;2023-04-25T11:58:55;18.30;;;17.10;;
52692;SDS011;68218;51.012;-1.648;2023-04-25T12:03:55;19.13;;;17.92;;
52692;SDS011;68218;51.012;-1.648;2023-04-25T12:06:25;16.15;;;15.05;;
52692;SDS011;68218;51.012;-1.648;2023-04-25T12:09:01;15.70;;;14.68;;
52692;SDS011;68218;51.012;-1.648;2023-04-25T12:11:32;13.80;;;12.88;;
52692;SDS011;68218;51.012;-1.648;2023-04-25T12:14:03;11.75;;;10.95;;
52692;SDS011;68218;51.012;-1.648;2023-04-25T12:16:44;12.20;;;11.30;;
52692;SDS011;68218;51.012;-1.648;2023-04-25T12:19:18;11.88;;;10.98;;
52692;SDS011;68218;51.012;-1.648;2023-04-25T12:21:45;12.27;;;11.38;;
52692;SDS011;68218;51.012;-1.648;2023-04-25T12:24:12;12.10;;;11.20;;
52692;SDS011;68218;51.012;-1.648;2023-04-25T12:29:25;12.68;;;11.77;;
52692;SDS011;68218;51.012;-1.648;2023-04-25T12:31:52;13.07;;;12.18;;
52692;SDS011;68218;51.012;-1.648;2023-04-25T12:34:19;13.88;;;12.88;;
52692;SDS011;68218;51.012;-1.648;2023-04-25T12:36:45;14.32;;;13.32;;
52692;SDS011;68218;51.012;-1.648;2023-04-25T12:39:17;13.95;;;12.95;;
52692;SDS011;68218;51.012;-1.648;2023-04-25T12:41:44;13.07;;;12.15;;
52692;SDS011;68218;51.012;-1.648;2023-04-25T12:44:11;13.45;;;12.45;;
52692;SDS011;68218;51.012;-1.648;2023-04-25T12:46:37;13.43;;;12.43;;
52692;SDS011;68218;51.012;-1.648;2023-04-25T12:49:03;12.90;;;11.98;;
52692;SDS011;68218;51.012;-1.648;2023-04-25T12:51:31;12.93;;;12.02;;
52692;SDS011;68218;51.012;-1.648;2023-04-25T12:53:57;14.15;;;13.15;;
52692;SDS011;68218;51.012;-1.648;2023-04-25T12:56:24;14.75;;;13.73;;
52692;SDS011;68218;51.012;-1.648;2023-04-25T12:58:51;13.77;;;12.77;;
52692;SDS011;68218;51.012;-1.648;2023-04-25T13:01:17;14.73;;;13.73;;
52692;SDS011;68218;51.012;-1.648;2023-04-25T13:03:42;14.32;;;13.32;;
52692;SDS011;68218;51.012;-1.648;2023-04-25T13:06:08;12.85;;;11.85;;
52692;SDS011;68218;51.012;-1.648;2023-04-25T13:08:33;13.65;;;12.55;;
52692;SDS011;68218;51.012;-1.648;2023-04-25T13:11:00;15.05;;;14.02;;
52692;SDS011;68218;51.012;-1.648;2023-04-25T13:13:25;13.65;;;12.65;;
52692;SDS011;68218;51.012;-1.648;2023-04-25T13:15:52;12.73;;;11.82;;
52692;SDS011;68218;51.012;-1.648;2023-04-25T13:18:18;12.85;;;11.95;;
52692;SDS011;68218;51.012;-1.648;2023-04-25T13:20:44;12.25;;;11.35;;
52692;SDS011;68218;51.012;-1.648;2023-04-25T13:23:11;13.32;;;12.43;;
52692;SDS011;68218;51.012;-1.648;2023-04-25T13:25:36;12.68;;;11.77;;
52692;SDS011;68218;51.012;-1.648;2023-04-25T13:28:02;12.80;;;11.90;;
52692;SDS011;68218;51.012;-1.648;2023-04-25T13:30:28;12.40;;;11.50;;
52692;SDS011;68218;51.012;-1.648;2023-04-25T13:32:53;13.25;;;12.35;;
52692;SDS011;68218;51.012;-1.648;2023-04-25T13:35:21;12.40;;;11.50;;
52692;SDS011;68218;51.012;-1.648;2023-04-25T13:37:47;12.85;;;11.95;;
52692;SDS011;68218;51.012;-1.648;2023-04-25T13:40:12;13.50;;;12.50;;
52692;SDS011;68218;51.012;-1.648;2023-04-25T13:42:38;12.75;;;11.85;;
52692;SDS011;68218;51.012;-1.648;2023-04-25T13:45:04;13.68;;;12.68;;
52692;SDS011;68218;51.012;-1.648;2023-04-25T13:47:30;12.55;;;11.65;;
52692;SDS011;68218;51.012;-1.648;2023-04-25T13:49:56;12.82;;;11.90;;
52692;SDS011;68218;51.012;-1.648;2023-04-25T13:52:21;13.20;;;12.20;;
52692;SDS011;68218;51.012;-1.648;2023-04-25T13:54:49;13.05;;;12.13;;
52692;SDS011;68218;51.012;-1.648;2023-04-25T13:57:14;12.68;;;11.77;;
52692;SDS011;68218;51.012;-1.648;2023-04-25T13:59:40;12.40;;;11.50;;
52692;SDS011;68218;51.012;-1.648;2023-04-25T14:02:06;12.65;;;11.75;;
52692;SDS011;68218;51.012;-1.648;2023-04-25T14:04:32;13.20;;;12.20;;
52692;SDS011;68218;51.012;-1.648;2023-04-25T14:06:58;12.38;;;11.27;;
52692;SDS011;68218;51.012;-1.648;2023-04-25T14:09:23;11.77;;;10.93;;
52692;SDS011;68218;51.012;-1.648;2023-04-25T14:11:53;18.15;;;16.85;;
52692;SDS011;68218;51.012;-1.648;2023-04-25T14:14:20;11.60;;;10.80;;
52692;SDS011;68218;51.012;-1.648;2023-04-25T14:16:47;11.40;;;10.60;;
52692;SDS011;68218;51.012;-1.648;2023-04-25T14:19:15;18.55;;;17.20;;
52692;SDS011;68218;51.012;-1.648;2023-04-25T14:21:41;16.67;;;15.40;;
52692;SDS011;68218;51.012;-1.648;2023-04-25T14:24:10;12.43;;;11.50;;
52692;SDS011;68218;51.012;-1.648;2023-04-25T14:26:38;12.95;;;11.98;;
52692;SDS011;68218;51.012;-1.648;2023-04-25T14:29:04;12.13;;;11.23;;
52692;SDS011;68218;51.012;-1.648;2023-04-25T14:31:33;12.48;;;11.57;;
52692;SDS011;68218;51.012;-1.648;2023-04-25T14:34:00;14.73;;;13.63;;
52692;SDS011;68218;51.012;-1.648;2023-04-25T14:36:26;12.35;;;11.45;;
52692;SDS011;68218;51.012;-1.648;2023-04-25T14:38:53;11.70;;;10.88;;
52692;SDS011;68218;51.012;-1.648;2023-04-25T14:41:18;12.52;;;11.63;;
52692;SDS011;68218;51.012;-1.648;2023-04-25T14:43:43;12.02;;;11.13;;
52692;SDS011;68218;51.012;-1.648;2023-04-25T14:46:10;11.48;;;10.68;;
52692;SDS011;68218;51.012;-1.648;2023-04-25T14:48:36;11.80;;;11.00;;
52692;SDS011;68218;51.012;-1.648;2023-04-25T14:51:01;11.48;;;10.68;;
52692;SDS011;68218;51.012;-1.648;2023-04-25T14:53:27;11.80;;;11.00;;
52692;SDS011;68218;51.012;-1.648;2023-04-25T14:55:53;11.98;;;11.18;;
52692;SDS011;68218;51.012;-1.648;2023-04-25T14:58:18;12.38;;;11.57;;
52692;SDS011;68218;51.012;-1.648;2023-04-25T15:00:44;11.90;;;11.10;;
52692;SDS011;68218;51.012;-1.648;2023-04-25T15:03:11;12.20;;;11.40;;
52692;SDS011;68218;51.012;-1.648;2023-04-25T15:05:37;10.65;;;9.85;;
52692;SDS011;68218;51.012;-1.648;2023-04-25T15:08:03;10.63;;;9.82;;